sensor_id;sensor_type;location;lat;lon;timestamp;P1;durP1;ratioP1;P2;durP2;ratioP2
52126;SDS011;38120;53.176;6.614;2022-10-29T00:01:29;17.07;;;6.47;;
52126;SDS011;38120;53.176;6.614;2022-10-29T00:03:55;15.10;;;6.23;;
52126;SDS011;38120;53.176;6.614;2022-10-29T00:06:21;19.83;;;7.00;;
52126;SDS011;38120;53.176;6.614;2022-10-29T00:08:46;16.50;;;6.40;;
52126;SDS011;38120;53.176;6.614;2022-10-29T00:11:13;16.90;;;6.45;;
52126;SDS011;38120;53.176;6.614;2022-10-29T00:13:44;15.13;;;6.47;;
52126;SDS011;38120;53.176;6.614;2022-10-29T00:16:12;15.18;;;5.65;;
52126;SDS011;38120;53.176;6.614;2022-10-29T00:18:42;28.88;;;8.90;;
52126;SDS011;38120;53.176;6.614;2022-10-29T00:21:10;20.45;;;6.97;;
52126;SDS011;38120;53.176;6.614;2022-10-29T00:23:37;19.88;;;6.85;;
52126;SDS011;38120;53.176;6.614;2022-10-29T00:26:03;21.45;;;7.28;;
52126;SDS011;38120;53.176;6.614;2022-10-29T00:28:29;19.15;;;7.30;;
52126;SDS011;38120;53.176;6.614;2022-10-29T00:30:55;18.35;;;7.55;;
52126;SDS011;38120;53.176;6.614;2022-10-29T00:33:21;21.65;;;7.65;;
52126;SDS011;38120;53.176;6.614;2022-10-29T00:35:56;27.20;;;8.88;;
52126;SDS011;38120;53.176;6.614;2022-10-29T00:38:23;21.08;;;8.30;;
52126;SDS011;38120;53.176;6.614;2022-10-29T00:40:50;22.08;;;8.32;;
52126;SDS011;38120;53.176;6.614;2022-10-29T00:43:17;20.08;;;7.88;;
52126;SDS011;38120;53.176;6.614;2022-10-29T00:45:46;21.38;;;7.18;;
52126;SDS011;38120;53.176;6.614;2022-10-29T00:48:16;21.20;;;7.50;;
52126;SDS011;38120;53.176;6.614;2022-10-29T00:50:42;19.85;;;7.90;;
52126;SDS011;38120;53.176;6.614;2022-10-29T00:53:09;25.08;;;7.95;;
52126;SDS011;38120;53.176;6.614;2022-10-29T00:55:35;20.58;;;6.97;;
52126;SDS011;38120;53.176;6.614;2022-10-29T00:58:01;24.00;;;8.20;;
52126;SDS011;38120;53.176;6.614;2022-10-29T01:00:27;18.35;;;7.68;;
52126;SDS011;38120;53.176;6.614;2022-10-29T01:02:53;20.13;;;6.78;;
52126;SDS011;38120;53.176;6.614;2022-10-29T01:05:19;23.42;;;8.15;;
52126;SDS011;38120;53.176;6.614;2022-10-29T01:07:47;23.75;;;8.15;;
52126;SDS011;38120;53.176;6.614;2022-10-29T01:10:13;20.70;;;8.05;;
52126;SDS011;38120;53.176;6.614;2022-10-29T01:16:00;18.83;;;6.88;;
52126;SDS011;38120;53.176;6.614;2022-10-29T01:18:58;21.63;;;7.82;;
52126;SDS011;38120;53.176;6.614;2022-10-29T01:21:39;27.02;;;7.25;;
52126;SDS011;38120;53.176;6.614;2022-10-29T01:25:01;18.45;;;7.60;;
52126;SDS011;38120;53.176;6.614;2022-10-29T01:27:34;22.50;;;9.30;;
52126;SDS011;38120;53.176;6.614;2022-10-29T01:31:03;26.98;;;9.27;;
52126;SDS011;38120;53.176;6.614;2022-10-29T01:48:36;142.02;;;19.75;;
52126;SDS011;38120;53.176;6.614;2022-10-29T01:51:08;138.43;;;15.60;;
52126;SDS011;38120;53.176;6.614;2022-10-29T01:53:40;31.60;;;9.52;;
52126;SDS011;38120;53.176;6.614;2022-10-29T01:56:05;40.15;;;10.32;;
52126;SDS011;38120;53.176;6.614;2022-10-29T01:58:31;49.15;;;12.20;;
52126;SDS011;38120;53.176;6.614;2022-10-29T02:11:14;42.03;;;11.00;;
52126;SDS011;38120;53.176;6.614;2022-10-29T02:14:01;55.97;;;12.40;;
52126;SDS011;38120;53.176;6.614;2022-10-29T02:16:29;20.10;;;8.80;;
52126;SDS011;38120;53.176;6.614;2022-10-29T02:18:57;73.30;;;14.63;;
52126;SDS011;38120;53.176;6.614;2022-10-29T02:21:24;40.22;;;10.35;;
52126;SDS011;38120;53.176;6.614;2022-10-29T02:23:50;89.80;;;14.50;;
52126;SDS011;38120;53.176;6.614;2022-10-29T02:26:16;84.03;;;11.40;;
52126;SDS011;38120;53.176;6.614;2022-10-29T02:28:42;62.83;;;9.77;;
52126;SDS011;38120;53.176;6.614;2022-10-29T02:31:08;133.18;;;13.27;;
52126;SDS011;38120;53.176;6.614;2022-10-29T02:33:34;145.25;;;16.88;;
52126;SDS011;38120;53.176;6.614;2022-10-29T02:36:00;140.93;;;13.75;;
52126;SDS011;38120;53.176;6.614;2022-10-29T02:38:26;77.65;;;10.27;;
52126;SDS011;38120;53.176;6.614;2022-10-29T02:40:52;224.30;;;17.90;;
52126;SDS011;38120;53.176;6.614;2022-10-29T02:43:17;103.05;;;11.75;;
52126;SDS011;38120;53.176;6.614;2022-10-29T02:45:43;48.50;;;9.68;;
52126;SDS011;38120;53.176;6.614;2022-10-29T02:48:09;38.85;;;9.35;;
52126;SDS011;38120;53.176;6.614;2022-10-29T02:50:35;98.90;;;12.53;;
52126;SDS011;38120;53.176;6.614;2022-10-29T02:53:00;32.35;;;7.13;;
52126;SDS011;38120;53.176;6.614;2022-10-29T02:55:26;77.18;;;12.80;;
52126;SDS011;38120;53.176;6.614;2022-10-29T02:57:52;122.65;;;12.10;;
52126;SDS011;38120;53.176;6.614;2022-10-29T03:00:17;81.32;;;10.18;;
52126;SDS011;38120;53.176;6.614;2022-10-29T03:02:43;49.10;;;7.82;;
52126;SDS011;38120;53.176;6.614;2022-10-29T03:05:09;74.45;;;11.50;;
52126;SDS011;38120;53.176;6.614;2022-10-29T03:07:35;80.22;;;12.50;;
52126;SDS011;38120;53.176;6.614;2022-10-29T03:10:05;79.20;;;9.73;;
52126;SDS011;38120;53.176;6.614;2022-10-29T03:12:32;113.65;;;12.02;;
52126;SDS011;38120;53.176;6.614;2022-10-29T03:17:24;279.38;;;20.73;;
52126;SDS011;38120;53.176;6.614;2022-10-29T03:19:50;76.65;;;10.07;;
52126;SDS011;38120;53.176;6.614;2022-10-29T03:22:15;73.05;;;8.73;;
52126;SDS011;38120;53.176;6.614;2022-10-29T03:24:41;60.58;;;9.63;;
52126;SDS011;38120;53.176;6.614;2022-10-29T03:27:07;97.30;;;9.68;;
52126;SDS011;38120;53.176;6.614;2022-10-29T03:29:33;226.05;;;15.95;;
52126;SDS011;38120;53.176;6.614;2022-10-29T03:31:58;134.55;;;11.52;;
52126;SDS011;38120;53.176;6.614;2022-10-29T03:34:24;70.47;;;8.38;;
52126;SDS011;38120;53.176;6.614;2022-10-29T03:36:50;64.85;;;8.73;;
52126;SDS011;38120;53.176;6.614;2022-10-29T03:39:16;113.00;;;10.20;;
52126;SDS011;38120;53.176;6.614;2022-10-29T03:41:42;145.55;;;12.13;;
52126;SDS011;38120;53.176;6.614;2022-10-29T03:44:07;115.40;;;11.60;;
52126;SDS011;38120;53.176;6.614;2022-10-29T03:46:33;400.83;;;23.27;;
52126;SDS011;38120;53.176;6.614;2022-10-29T03:48:59;278.73;;;18.80;;
52126;SDS011;38120;53.176;6.614;2022-10-29T03:51:25;251.80;;;16.55;;
52126;SDS011;38120;53.176;6.614;2022-10-29T03:53:51;155.18;;;13.05;;
52126;SDS011;38120;53.176;6.614;2022-10-29T03:56:17;156.55;;;12.80;;
52126;SDS011;38120;53.176;6.614;2022-10-29T03:58:42;112.68;;;14.32;;
52126;SDS011;38120;53.176;6.614;2022-10-29T04:01:09;99.13;;;11.32;;
52126;SDS011;38120;53.176;6.614;2022-10-29T04:03:35;78.07;;;9.40;;
52126;SDS011;38120;53.176;6.614;2022-10-29T04:06:08;67.15;;;10.60;;
52126;SDS011;38120;53.176;6.614;2022-10-29T04:08:35;69.15;;;11.80;;
52126;SDS011;38120;53.176;6.614;2022-10-29T04:11:01;58.53;;;9.45;;
52126;SDS011;38120;53.176;6.614;2022-10-29T04:13:27;64.75;;;9.07;;
52126;SDS011;38120;53.176;6.614;2022-10-29T04:15:53;86.05;;;10.32;;
52126;SDS011;38120;53.176;6.614;2022-10-29T04:18:19;257.48;;;17.17;;
52126;SDS011;38120;53.176;6.614;2022-10-29T04:20:45;101.32;;;10.68;;
52126;SDS011;38120;53.176;6.614;2022-10-29T04:23:11;118.47;;;12.38;;
52126;SDS011;38120;53.176;6.614;2022-10-29T04:25:36;95.10;;;11.00;;
52126;SDS011;38120;53.176;6.614;2022-10-29T04:28:02;94.20;;;12.10;;
52126;SDS011;38120;53.176;6.614;2022-10-29T04:30:28;194.07;;;15.68;;
52126;SDS011;38120;53.176;6.614;2022-10-29T04:32:55;128.35;;;13.57;;
52126;SDS011;38120;53.176;6.614;2022-10-29T04:35:21;118.35;;;13.63;;
52126;SDS011;38120;53.176;6.614;2022-10-29T04:37:47;51.40;;;9.20;;
52126;SDS011;38120;53.176;6.614;2022-10-29T04:40:13;47.40;;;9.47;;
52126;SDS011;38120;53.176;6.614;2022-10-29T04:42:39;32.38;;;7.05;;
52126;SDS011;38120;53.176;6.614;2022-10-29T04:45:05;92.80;;;10.60;;
52126;SDS011;38120;53.176;6.614;2022-10-29T04:47:31;75.78;;;10.23;;
52126;SDS011;38120;53.176;6.614;2022-10-29T04:49:57;153.65;;;13.80;;
52126;SDS011;38120;53.176;6.614;2022-10-29T04:52:23;51.93;;;8.43;;
52126;SDS011;38120;53.176;6.614;2022-10-29T04:54:49;50.33;;;7.85;;
52126;SDS011;38120;53.176;6.614;2022-10-29T04:57:15;218.83;;;18.17;;
52126;SDS011;38120;53.176;6.614;2022-10-29T04:59:40;59.47;;;10.55;;
52126;SDS011;38120;53.176;6.614;2022-10-29T05:02:06;173.23;;;15.53;;
52126;SDS011;38120;53.176;6.614;2022-10-29T05:04:32;117.73;;;12.90;;
52126;SDS011;38120;53.176;6.614;2022-10-29T05:06:57;77.30;;;11.20;;
52126;SDS011;38120;53.176;6.614;2022-10-29T05:09:23;84.43;;;10.53;;
52126;SDS011;38120;53.176;6.614;2022-10-29T05:11:49;29.53;;;8.37;;
52126;SDS011;38120;53.176;6.614;2022-10-29T05:14:14;132.85;;;17.92;;
52126;SDS011;38120;53.176;6.614;2022-10-29T05:16:40;61.00;;;10.18;;
52126;SDS011;38120;53.176;6.614;2022-10-29T05:19:06;183.40;;;17.03;;
52126;SDS011;38120;53.176;6.614;2022-10-29T05:21:31;59.67;;;10.93;;
52126;SDS011;38120;53.176;6.614;2022-10-29T05:23:57;73.63;;;11.60;;
52126;SDS011;38120;53.176;6.614;2022-10-29T05:26:23;44.05;;;9.80;;
52126;SDS011;38120;53.176;6.614;2022-10-29T05:28:49;104.60;;;11.33;;
52126;SDS011;38120;53.176;6.614;2022-10-29T05:31:15;25.67;;;9.48;;
52126;SDS011;38120;53.176;6.614;2022-10-29T05:33:41;38.88;;;8.20;;
52126;SDS011;38120;53.176;6.614;2022-10-29T05:36:07;33.80;;;8.60;;
52126;SDS011;38120;53.176;6.614;2022-10-29T05:38:33;103.57;;;12.90;;
52126;SDS011;38120;53.176;6.614;2022-10-29T05:40:59;56.00;;;9.67;;
52126;SDS011;38120;53.176;6.614;2022-10-29T05:43:24;79.20;;;13.55;;
52126;SDS011;38120;53.176;6.614;2022-10-29T05:45:50;66.35;;;10.02;;
52126;SDS011;38120;53.176;6.614;2022-10-29T05:48:16;40.90;;;10.93;;
52126;SDS011;38120;53.176;6.614;2022-10-29T05:50:41;47.53;;;11.30;;
52126;SDS011;38120;53.176;6.614;2022-10-29T05:53:09;25.23;;;8.37;;
52126;SDS011;38120;53.176;6.614;2022-10-29T05:55:36;79.55;;;15.60;;
52126;SDS011;38120;53.176;6.614;2022-10-29T05:58:03;35.72;;;9.68;;
52126;SDS011;38120;53.176;6.614;2022-10-29T06:00:32;92.32;;;13.00;;
52126;SDS011;38120;53.176;6.614;2022-10-29T06:02:59;29.50;;;8.48;;
52126;SDS011;38120;53.176;6.614;2022-10-29T06:05:25;112.07;;;16.30;;
52126;SDS011;38120;53.176;6.614;2022-10-29T06:07:54;40.90;;;9.60;;
52126;SDS011;38120;53.176;6.614;2022-10-29T06:10:24;30.08;;;9.13;;
52126;SDS011;38120;53.176;6.614;2022-10-29T06:12:52;59.15;;;12.50;;
52126;SDS011;38120;53.176;6.614;2022-10-29T06:15:18;70.40;;;12.30;;
52126;SDS011;38120;53.176;6.614;2022-10-29T06:17:44;42.33;;;11.77;;
52126;SDS011;38120;53.176;6.614;2022-10-29T06:20:10;23.85;;;8.52;;
52126;SDS011;38120;53.176;6.614;2022-10-29T06:22:37;68.32;;;12.30;;
52126;SDS011;38120;53.176;6.614;2022-10-29T06:25:03;125.68;;;14.90;;
52126;SDS011;38120;53.176;6.614;2022-10-29T06:27:29;73.10;;;11.50;;
52126;SDS011;38120;53.176;6.614;2022-10-29T06:29:55;72.70;;;12.93;;
52126;SDS011;38120;53.176;6.614;2022-10-29T06:32:20;177.77;;;20.15;;
52126;SDS011;38120;53.176;6.614;2022-10-29T06:34:46;129.32;;;13.98;;
52126;SDS011;38120;53.176;6.614;2022-10-29T06:37:12;54.78;;;10.00;;
52126;SDS011;38120;53.176;6.614;2022-10-29T06:39:38;73.15;;;12.52;;
52126;SDS011;38120;53.176;6.614;2022-10-29T06:42:03;91.27;;;16.63;;
52126;SDS011;38120;53.176;6.614;2022-10-29T06:44:29;65.80;;;11.37;;
52126;SDS011;38120;53.176;6.614;2022-10-29T06:46:55;79.70;;;13.03;;
52126;SDS011;38120;53.176;6.614;2022-10-29T06:49:21;122.07;;;14.47;;
52126;SDS011;38120;53.176;6.614;2022-10-29T06:51:46;45.38;;;9.60;;
52126;SDS011;38120;53.176;6.614;2022-10-29T06:54:12;38.58;;;11.07;;
52126;SDS011;38120;53.176;6.614;2022-10-29T06:56:38;57.40;;;13.13;;
52126;SDS011;38120;53.176;6.614;2022-10-29T06:59:04;41.43;;;10.43;;
52126;SDS011;38120;53.176;6.614;2022-10-29T07:01:30;31.23;;;9.07;;
52126;SDS011;38120;53.176;6.614;2022-10-29T07:04:00;47.55;;;9.63;;
52126;SDS011;38120;53.176;6.614;2022-10-29T07:06:26;38.10;;;10.70;;
52126;SDS011;38120;53.176;6.614;2022-10-29T07:08:52;122.20;;;16.38;;
52126;SDS011;38120;53.176;6.614;2022-10-29T07:11:18;29.95;;;11.63;;
52126;SDS011;38120;53.176;6.614;2022-10-29T07:13:44;40.08;;;10.25;;
52126;SDS011;38120;53.176;6.614;2022-10-29T07:16:10;49.63;;;10.82;;
52126;SDS011;38120;53.176;6.614;2022-10-29T07:18:35;47.47;;;11.27;;
52126;SDS011;38120;53.176;6.614;2022-10-29T07:21:01;67.53;;;13.27;;
52126;SDS011;38120;53.176;6.614;2022-10-29T07:23:28;42.42;;;11.70;;
52126;SDS011;38120;53.176;6.614;2022-10-29T07:25:54;38.55;;;11.30;;
52126;SDS011;38120;53.176;6.614;2022-10-29T07:28:20;35.97;;;11.20;;
52126;SDS011;38120;53.176;6.614;2022-10-29T07:30:47;25.92;;;10.07;;
52126;SDS011;38120;53.176;6.614;2022-10-29T07:33:14;30.98;;;10.90;;
52126;SDS011;38120;53.176;6.614;2022-10-29T07:35:40;44.55;;;14.00;;
52126;SDS011;38120;53.176;6.614;2022-10-29T07:40:33;36.33;;;12.48;;
52126;SDS011;38120;53.176;6.614;2022-10-29T07:42:59;34.22;;;11.85;;
52126;SDS011;38120;53.176;6.614;2022-10-29T07:45:24;45.33;;;12.57;;
52126;SDS011;38120;53.176;6.614;2022-10-29T07:47:57;41.43;;;16.03;;
52126;SDS011;38120;53.176;6.614;2022-10-29T07:50:27;47.00;;;14.00;;
52126;SDS011;38120;53.176;6.614;2022-10-29T07:52:54;155.32;;;25.35;;
52126;SDS011;38120;53.176;6.614;2022-10-29T07:55:20;32.03;;;13.38;;
52126;SDS011;38120;53.176;6.614;2022-10-29T07:57:45;100.97;;;22.67;;
52126;SDS011;38120;53.176;6.614;2022-10-29T08:00:11;35.20;;;13.60;;
52126;SDS011;38120;53.176;6.614;2022-10-29T08:02:38;37.63;;;14.27;;
52126;SDS011;38120;53.176;6.614;2022-10-29T08:05:06;76.47;;;17.30;;
52126;SDS011;38120;53.176;6.614;2022-10-29T08:09:58;40.53;;;14.38;;
52126;SDS011;38120;53.176;6.614;2022-10-29T08:12:23;34.27;;;13.07;;
52126;SDS011;38120;53.176;6.614;2022-10-29T08:14:49;52.03;;;16.87;;
52126;SDS011;38120;53.176;6.614;2022-10-29T08:17:15;50.83;;;15.77;;
52126;SDS011;38120;53.176;6.614;2022-10-29T08:19:40;43.42;;;14.38;;
52126;SDS011;38120;53.176;6.614;2022-10-29T08:22:06;36.92;;;15.40;;
52126;SDS011;38120;53.176;6.614;2022-10-29T08:24:32;42.37;;;16.40;;
52126;SDS011;38120;53.176;6.614;2022-10-29T08:26:58;43.13;;;16.90;;
52126;SDS011;38120;53.176;6.614;2022-10-29T08:29:23;40.65;;;17.90;;
52126;SDS011;38120;53.176;6.614;2022-10-29T08:31:49;44.40;;;19.63;;
52126;SDS011;38120;53.176;6.614;2022-10-29T08:34:15;41.15;;;18.05;;
52126;SDS011;38120;53.176;6.614;2022-10-29T08:36:41;41.45;;;19.10;;
52126;SDS011;38120;53.176;6.614;2022-10-29T08:39:06;48.70;;;21.58;;
52126;SDS011;38120;53.176;6.614;2022-10-29T08:41:33;51.50;;;21.07;;
52126;SDS011;38120;53.176;6.614;2022-10-29T08:47:05;50.35;;;23.80;;
52126;SDS011;38120;53.176;6.614;2022-10-29T08:49:46;48.03;;;23.40;;
52126;SDS011;38120;53.176;6.614;2022-10-29T08:52:26;44.28;;;23.38;;
52126;SDS011;38120;53.176;6.614;2022-10-29T08:57:42;46.92;;;23.00;;
52126;SDS011;38120;53.176;6.614;2022-10-29T09:00:35;40.85;;;21.83;;
52126;SDS011;38120;53.176;6.614;2022-10-29T09:03:08;51.38;;;24.60;;
52126;SDS011;38120;53.176;6.614;2022-10-29T09:06:39;40.63;;;23.35;;
52126;SDS011;38120;53.176;6.614;2022-10-29T09:11:26;44.38;;;24.13;;
52126;SDS011;38120;53.176;6.614;2022-10-29T09:14:02;40.78;;;21.90;;
52126;SDS011;38120;53.176;6.614;2022-10-29T09:19:27;47.05;;;24.40;;
52126;SDS011;38120;53.176;6.614;2022-10-29T09:24:56;43.67;;;23.13;;
52126;SDS011;38120;53.176;6.614;2022-10-29T09:30:02;44.63;;;23.58;;
52126;SDS011;38120;53.176;6.614;2022-10-29T09:32:49;42.17;;;22.27;;
52126;SDS011;38120;53.176;6.614;2022-10-29T09:35:52;40.42;;;21.73;;
52126;SDS011;38120;53.176;6.614;2022-10-29T09:38:22;39.30;;;20.23;;
52126;SDS011;38120;53.176;6.614;2022-10-29T09:40:52;41.90;;;21.27;;
52126;SDS011;38120;53.176;6.614;2022-10-29T09:49:04;47.65;;;20.17;;
52126;SDS011;38120;53.176;6.614;2022-10-29T09:54:09;37.03;;;19.75;;
52126;SDS011;38120;53.176;6.614;2022-10-29T09:56:38;39.13;;;19.95;;
52126;SDS011;38120;53.176;6.614;2022-10-29T09:59:16;37.95;;;19.13;;
52126;SDS011;38120;53.176;6.614;2022-10-29T10:01:51;36.08;;;17.58;;
52126;SDS011;38120;53.176;6.614;2022-10-29T10:04:22;36.28;;;19.75;;
52126;SDS011;38120;53.176;6.614;2022-10-29T10:06:59;35.03;;;16.98;;
52126;SDS011;38120;53.176;6.614;2022-10-29T10:09:28;32.75;;;17.30;;
52126;SDS011;38120;53.176;6.614;2022-10-29T10:11:53;30.75;;;17.95;;
52126;SDS011;38120;53.176;6.614;2022-10-29T10:14:23;36.25;;;16.20;;
52126;SDS011;38120;53.176;6.614;2022-10-29T10:16:57;27.45;;;16.65;;
52126;SDS011;38120;53.176;6.614;2022-10-29T10:19:25;28.63;;;16.52;;
52126;SDS011;38120;53.176;6.614;2022-10-29T10:21:56;33.58;;;16.80;;
52126;SDS011;38120;53.176;6.614;2022-10-29T10:24:28;30.02;;;16.27;;
52126;SDS011;38120;53.176;6.614;2022-10-29T10:26:58;31.73;;;15.48;;
52126;SDS011;38120;53.176;6.614;2022-10-29T10:29:25;26.75;;;15.02;;
52126;SDS011;38120;53.176;6.614;2022-10-29T10:32:08;28.38;;;15.68;;
52126;SDS011;38120;53.176;6.614;2022-10-29T10:34:38;24.57;;;13.87;;
52126;SDS011;38120;53.176;6.614;2022-10-29T10:42:18;29.45;;;14.10;;
52126;SDS011;38120;53.176;6.614;2022-10-29T10:44:57;32.78;;;14.93;;
52126;SDS011;38120;53.176;6.614;2022-10-29T10:47:28;23.90;;;12.25;;
52126;SDS011;38120;53.176;6.614;2022-10-29T10:52:46;28.33;;;13.13;;
52126;SDS011;38120;53.176;6.614;2022-10-29T10:55:32;26.63;;;13.30;;
52126;SDS011;38120;53.176;6.614;2022-10-29T11:01:12;26.88;;;11.35;;
52126;SDS011;38120;53.176;6.614;2022-10-29T11:03:47;21.85;;;11.60;;
52126;SDS011;38120;53.176;6.614;2022-10-29T11:06:27;21.95;;;11.65;;
52126;SDS011;38120;53.176;6.614;2022-10-29T11:09:05;28.85;;;13.07;;
52126;SDS011;38120;53.176;6.614;2022-10-29T11:11:53;25.77;;;12.90;;
52126;SDS011;38120;53.176;6.614;2022-10-29T11:14:30;16.75;;;11.35;;
52126;SDS011;38120;53.176;6.614;2022-10-29T11:16:58;22.13;;;11.32;;
52126;SDS011;38120;53.176;6.614;2022-10-29T11:19:31;18.70;;;10.50;;
52126;SDS011;38120;53.176;6.614;2022-10-29T11:22:05;21.60;;;10.93;;
52126;SDS011;38120;53.176;6.614;2022-10-29T11:24:59;24.33;;;10.23;;
52126;SDS011;38120;53.176;6.614;2022-10-29T11:27:54;21.58;;;9.85;;
52126;SDS011;38120;53.176;6.614;2022-10-29T11:30:28;20.10;;;9.57;;
52126;SDS011;38120;53.176;6.614;2022-10-29T11:33:19;24.45;;;11.95;;
52126;SDS011;38120;53.176;6.614;2022-10-29T11:36:26;23.58;;;13.30;;
52126;SDS011;38120;53.176;6.614;2022-10-29T11:39:14;23.02;;;12.50;;
52126;SDS011;38120;53.176;6.614;2022-10-29T11:41:56;23.83;;;13.15;;
52126;SDS011;38120;53.176;6.614;2022-10-29T11:44:23;26.02;;;13.40;;
52126;SDS011;38120;53.176;6.614;2022-10-29T11:46:57;20.67;;;11.20;;
52126;SDS011;38120;53.176;6.614;2022-10-29T11:49:48;21.63;;;12.18;;
52126;SDS011;38120;53.176;6.614;2022-10-29T11:57:50;20.60;;;11.63;;
52126;SDS011;38120;53.176;6.614;2022-10-29T12:00:22;22.05;;;12.18;;
52126;SDS011;38120;53.176;6.614;2022-10-29T12:03:04;23.00;;;12.88;;
52126;SDS011;38120;53.176;6.614;2022-10-29T12:26:51;25.27;;;11.55;;
52126;SDS011;38120;53.176;6.614;2022-10-29T12:32:27;17.20;;;10.45;;
52126;SDS011;38120;53.176;6.614;2022-10-29T12:41:01;16.67;;;8.75;;
52126;SDS011;38120;53.176;6.614;2022-10-29T12:43:34;16.75;;;10.18;;
52126;SDS011;38120;53.176;6.614;2022-10-29T12:59:38;20.55;;;10.93;;
52126;SDS011;38120;53.176;6.614;2022-10-29T13:02:23;24.00;;;9.63;;
52126;SDS011;38120;53.176;6.614;2022-10-29T13:15:22;18.98;;;10.48;;
52126;SDS011;38120;53.176;6.614;2022-10-29T13:17:54;20.25;;;11.55;;
52126;SDS011;38120;53.176;6.614;2022-10-29T13:20:25;21.98;;;11.80;;
52126;SDS011;38120;53.176;6.614;2022-10-29T13:23:09;21.35;;;12.10;;
52126;SDS011;38120;53.176;6.614;2022-10-29T13:25:49;19.10;;;10.32;;
52126;SDS011;38120;53.176;6.614;2022-10-29T13:30:42;18.65;;;10.35;;
52126;SDS011;38120;53.176;6.614;2022-10-29T13:43:51;26.55;;;12.80;;
52126;SDS011;38120;53.176;6.614;2022-10-29T13:46:28;18.92;;;10.13;;
52126;SDS011;38120;53.176;6.614;2022-10-29T13:54:46;27.95;;;10.68;;
52126;SDS011;38120;53.176;6.614;2022-10-29T14:00:03;23.85;;;10.50;;
52126;SDS011;38120;53.176;6.614;2022-10-29T14:05:34;20.77;;;11.18;;
52126;SDS011;38120;53.176;6.614;2022-10-29T14:08:07;17.40;;;11.50;;
52126;SDS011;38120;53.176;6.614;2022-10-29T14:18:30;22.40;;;12.55;;
52126;SDS011;38120;53.176;6.614;2022-10-29T14:21:01;25.67;;;12.63;;
52126;SDS011;38120;53.176;6.614;2022-10-29T14:23:29;33.13;;;14.35;;
52126;SDS011;38120;53.176;6.614;2022-10-29T14:25:56;24.50;;;12.05;;
52126;SDS011;38120;53.176;6.614;2022-10-29T14:31:03;22.52;;;11.35;;
52126;SDS011;38120;53.176;6.614;2022-10-29T14:33:37;32.00;;;12.50;;
52126;SDS011;38120;53.176;6.614;2022-10-29T14:36:21;26.92;;;13.75;;
52126;SDS011;38120;53.176;6.614;2022-10-29T14:38:56;28.33;;;12.50;;
52126;SDS011;38120;53.176;6.614;2022-10-29T14:41:29;25.67;;;12.93;;
52126;SDS011;38120;53.176;6.614;2022-10-29T14:49:29;51.45;;;15.35;;
52126;SDS011;38120;53.176;6.614;2022-10-29T14:52:05;36.53;;;15.00;;
52126;SDS011;38120;53.176;6.614;2022-10-29T14:54:41;27.30;;;11.80;;
52126;SDS011;38120;53.176;6.614;2022-10-29T14:57:13;60.55;;;16.02;;
52126;SDS011;38120;53.176;6.614;2022-10-29T14:59:51;21.73;;;9.52;;
52126;SDS011;38120;53.176;6.614;2022-10-29T15:02:19;48.47;;;13.63;;
52126;SDS011;38120;53.176;6.614;2022-10-29T15:04:54;29.48;;;10.48;;
52126;SDS011;38120;53.176;6.614;2022-10-29T15:12:49;20.92;;;10.77;;
52126;SDS011;38120;53.176;6.614;2022-10-29T15:18:03;27.98;;;9.90;;
52126;SDS011;38120;53.176;6.614;2022-10-29T15:20:34;55.22;;;14.32;;
52126;SDS011;38120;53.176;6.614;2022-10-29T15:23:21;88.22;;;17.70;;
52126;SDS011;38120;53.176;6.614;2022-10-29T15:26:13;19.92;;;9.65;;
52126;SDS011;38120;53.176;6.614;2022-10-29T15:28:45;14.45;;;8.15;;
52126;SDS011;38120;53.176;6.614;2022-10-29T15:31:18;39.03;;;10.85;;
52126;SDS011;38120;53.176;6.614;2022-10-29T15:33:45;42.17;;;12.05;;
52126;SDS011;38120;53.176;6.614;2022-10-29T15:36:11;22.88;;;9.73;;
52126;SDS011;38120;53.176;6.614;2022-10-29T15:41:28;21.60;;;10.05;;
52126;SDS011;38120;53.176;6.614;2022-10-29T15:43:58;19.10;;;8.48;;
52126;SDS011;38120;53.176;6.614;2022-10-29T15:46:28;21.33;;;10.57;;
52126;SDS011;38120;53.176;6.614;2022-10-29T15:48:58;22.13;;;9.57;;
52126;SDS011;38120;53.176;6.614;2022-10-29T15:51:27;21.13;;;9.60;;
52126;SDS011;38120;53.176;6.614;2022-10-29T15:53:55;20.05;;;10.15;;
52126;SDS011;38120;53.176;6.614;2022-10-29T15:56:25;17.75;;;9.15;;
52126;SDS011;38120;53.176;6.614;2022-10-29T15:58:52;19.08;;;9.13;;
52126;SDS011;38120;53.176;6.614;2022-10-29T16:01:17;14.63;;;8.68;;
52126;SDS011;38120;53.176;6.614;2022-10-29T16:03:43;20.77;;;9.98;;
52126;SDS011;38120;53.176;6.614;2022-10-29T16:06:09;18.85;;;10.20;;
52126;SDS011;38120;53.176;6.614;2022-10-29T16:08:37;18.85;;;10.13;;
52126;SDS011;38120;53.176;6.614;2022-10-29T16:11:06;22.25;;;10.85;;
52126;SDS011;38120;53.176;6.614;2022-10-29T16:13:36;15.85;;;8.43;;
52126;SDS011;38120;53.176;6.614;2022-10-29T16:16:01;21.63;;;9.13;;
52126;SDS011;38120;53.176;6.614;2022-10-29T16:18:28;21.63;;;10.23;;
52126;SDS011;38120;53.176;6.614;2022-10-29T16:20:57;16.65;;;10.27;;
52126;SDS011;38120;53.176;6.614;2022-10-29T16:23:24;19.23;;;10.88;;
52126;SDS011;38120;53.176;6.614;2022-10-29T16:25:50;19.80;;;10.00;;
52126;SDS011;38120;53.176;6.614;2022-10-29T16:28:16;19.40;;;10.40;;
52126;SDS011;38120;53.176;6.614;2022-10-29T16:30:42;18.38;;;10.60;;
52126;SDS011;38120;53.176;6.614;2022-10-29T16:33:13;24.60;;;11.73;;
52126;SDS011;38120;53.176;6.614;2022-10-29T16:35:39;21.50;;;13.23;;
52126;SDS011;38120;53.176;6.614;2022-10-29T16:38:05;18.92;;;11.10;;
52126;SDS011;38120;53.176;6.614;2022-10-29T16:40:30;24.10;;;11.13;;
52126;SDS011;38120;53.176;6.614;2022-10-29T16:42:56;20.77;;;10.70;;
52126;SDS011;38120;53.176;6.614;2022-10-29T16:45:26;22.48;;;11.52;;
52126;SDS011;38120;53.176;6.614;2022-10-29T16:47:54;26.05;;;11.98;;
52126;SDS011;38120;53.176;6.614;2022-10-29T16:50:26;20.85;;;12.68;;
52126;SDS011;38120;53.176;6.614;2022-10-29T16:52:55;21.55;;;13.20;;
52126;SDS011;38120;53.176;6.614;2022-10-29T16:55:37;19.73;;;11.98;;
52126;SDS011;38120;53.176;6.614;2022-10-29T16:58:10;25.70;;;12.85;;
52126;SDS011;38120;53.176;6.614;2022-10-29T17:00:37;23.52;;;12.70;;
52126;SDS011;38120;53.176;6.614;2022-10-29T17:03:03;26.35;;;13.20;;
52126;SDS011;38120;53.176;6.614;2022-10-29T17:07:58;19.75;;;12.32;;
52126;SDS011;38120;53.176;6.614;2022-10-29T17:10:24;24.52;;;13.55;;
52126;SDS011;38120;53.176;6.614;2022-10-29T17:12:50;22.27;;;12.50;;
52126;SDS011;38120;53.176;6.614;2022-10-29T17:15:15;26.55;;;14.07;;
52126;SDS011;38120;53.176;6.614;2022-10-29T17:17:41;19.38;;;12.50;;
52126;SDS011;38120;53.176;6.614;2022-10-29T17:20:07;17.38;;;12.20;;
52126;SDS011;38120;53.176;6.614;2022-10-29T17:24:59;19.52;;;13.32;;
52126;SDS011;38120;53.176;6.614;2022-10-29T17:27:24;21.33;;;13.35;;
52126;SDS011;38120;53.176;6.614;2022-10-29T17:29:50;21.73;;;12.75;;
52126;SDS011;38120;53.176;6.614;2022-10-29T17:32:16;22.60;;;13.15;;
52126;SDS011;38120;53.176;6.614;2022-10-29T17:34:41;21.23;;;13.05;;
52126;SDS011;38120;53.176;6.614;2022-10-29T17:37:07;22.67;;;12.25;;
52126;SDS011;38120;53.176;6.614;2022-10-29T17:39:33;19.85;;;14.07;;
52126;SDS011;38120;53.176;6.614;2022-10-29T17:41:59;20.13;;;13.05;;
52126;SDS011;38120;53.176;6.614;2022-10-29T17:44:25;24.27;;;14.07;;
52126;SDS011;38120;53.176;6.614;2022-10-29T17:46:51;19.27;;;13.63;;